Gallion, Alabama
Current Conditions -  °F | °C
As of 4:55 PM on Tuesday 25 Nov 2014 (Local Time) from KDYA Reporting Station
Clear Clear  
Wind Chill: 51°   Ceiling: Unl
Heat Index: 51°   Visibility: 10mi
Dew Point: 28°   Wind: 6mph
Humidity: 41%   Direction: 330°NNW
Pressure: 30.12"   Gusts: NA
Location:  32.5°N, 87.72°W
Report Text: KDYA 252255Z AUTO 33005KT 10SM CLR 11/M02 A3012 RMK AO2 T01071021
Loading
Personal Weather Stations






























Interactive Weather Map New forecast layout! Learn more

10-Day Weather Forecast

Advertisements
Track Severe Weather on mobile